Kennedy Helen — WDF5662 — position and weather

sailwx.info

Track history (hours):
 
Tides and Currents Weather Stations Pressure Air Temp Water Temp Dewpoint Dewpoint Depression Visibility Wind Speed Wind Dir Waves Ship Positions

Kennedy Helen

Owner: Heinrichs, Keith E, New Gretna, NJ. More information available from US FCC via Universal Licensing System and Coast Guard Vessel Documentation Center.

Last reported at 2017-Sep-16 02:22 UTC. Time now 2017-Sep-24 10:11 UTC.
Position N 39°45' W 074°07'.
Warning: this ship's position is 8 days out of date.

Length 14 m.

Type: Fishing. MMSI: 367465880.

Date/timePositionNaut miles runAvg speedWind from/ knotsBaromVisibWave heightAir tempDewpointWater temp
2017-Sep-16 02:22N 39°45' W 074°07'2 5.5
2017-Sep-16 01:59N 39°46' W 074°04'3 0.2
2017-Sep-15 06:48N 39°46' W 074°00'3 9.2
2017-Sep-15 06:30N 39°46' W 074°04'3 4.6
2017-Sep-15 05:57N 39°45' W 074°07'0 0.0
2017-Sep-13 04:19N 39°45' W 074°07'1 2.6
2017-Sep-13 04:00N 39°46' W 074°07'4 8.4
2017-Sep-13 03:30N 39°45' W 074°01'4 8.6
2017-Sep-13 03:00N 39°45' W 073°56'4 8.7
2017-Sep-13 02:30N 39°44' W 073°50'6 8.9
2017-Sep-13 01:52N 39°43' W 073°43'3 9.1
2017-Sep-13 01:30N 39°42' W 073°39'5 9.2
2017-Sep-13 01:00N 39°42' W 073°33'5 9.1
2017-Sep-13 00:30N 39°41' W 073°27'6 9.1
2017-Sep-12 23:52N 39°40' W 073°19'3 8.9
2017-Sep-12 23:30N 39°39' W 073°15'23 1.5
2017-Sep-12 08:24N 39°48' W 073°43'5 9.1
2017-Sep-12 07:51N 39°47' W 073°49'9 9.1
2017-Sep-12 06:54N 39°46' W 074°00'4 9.0
2017-Sep-12 06:30N 39°46' W 074°05'  
Track history (hours):
 
Tides and Currents Weather Stations Pressure Air Temp Water Temp Dewpoint Dewpoint Depression Visibility Wind Speed Wind Dir Waves Ship Positions

Kennedy Helen

Owner: Heinrichs, Keith E, New Gretna, NJ. More information available from US FCC via Universal Licensing System and Coast Guard Vessel Documentation Center.

Last reported at 2017-Sep-16 02:22 UTC. Time now 2017-Sep-24 10:11 UTC.
Position N 39°45' W 074°07'.
Warning: this ship's position is 8 days out of date.

Length 14 m.

Type: Fishing. MMSI: 367465880.

Date/timePositionNaut miles runAvg speedWind from/ knotsBaromVisibWave heightAir tempDewpointWater temp
2017-Sep-16 02:22N 39°45' W 074°07'2 5.5
2017-Sep-16 01:59N 39°46' W 074°04'3 0.2
2017-Sep-15 06:48N 39°46' W 074°00'3 9.2
2017-Sep-15 06:30N 39°46' W 074°04'3 4.6
2017-Sep-15 05:57N 39°45' W 074°07'0 0.0
2017-Sep-13 04:19N 39°45' W 074°07'1 2.6
2017-Sep-13 04:00N 39°46' W 074°07'4 8.4
2017-Sep-13 03:30N 39°45' W 074°01'4 8.6
2017-Sep-13 03:00N 39°45' W 073°56'4 8.7
2017-Sep-13 02:30N 39°44' W 073°50'6 8.9
2017-Sep-13 01:52N 39°43' W 073°43'3 9.1
2017-Sep-13 01:30N 39°42' W 073°39'5 9.2
2017-Sep-13 01:00N 39°42' W 073°33'5 9.1
2017-Sep-13 00:30N 39°41' W 073°27'6 9.1
2017-Sep-12 23:52N 39°40' W 073°19'3 8.9
2017-Sep-12 23:30N 39°39' W 073°15'23 1.5
2017-Sep-12 08:24N 39°48' W 073°43'5 9.1
2017-Sep-12 07:51N 39°47' W 073°49'9 9.1
2017-Sep-12 06:54N 39°46' W 074°00'4 9.0
2017-Sep-12 06:30N 39°46' W 074°05'  

Dump ship's entire track history